Terminal Aerodrome Forecast
Issued by NWS

Home | Current Version | Previous Version | Text Only | Print | Product List | Glossary Off
Versions: 1 2 3 4 5 6 7 8 9 10 11 12 13 14 15 16 17 18

618
FTUS43 KGRB 290327 AAA
TAFCWA
TAF AMD
KCWA 290327Z 2903/2924 08005KT P6SM OVC040
      TEMPO 2903/2907 5SM -RA BKN030
     FM290700 VRB03KT P6SM OVC045
     FM291600 05007KT P6SM BKN060
     FM291700 05008KT P6SM SCT070
     FM292000 08007KT P6SM SCT080
      AMD LTD TO CLD VIS AND WIND TIL 291100=

USA.gov is the U.S. government's official web portal to all federal, state and local government web resources and services.